Time;durP1;ratioP1;P1;durP2;ratioP2;P2;SDS_P1;SDS_P2;PMS_P1;PMS_P2;Temp;Humidity;BMP_temperature;BMP_pressure;BME280_temperature;BME280_humidity;BME280_pressure;Samples;Min_cycle;Max_cycle;Signal;HPM_P1;HPM_P2
2022/12/04 00:01:25;;;;;;;33.00;19.40;;;;;;;;;;5046431;28;20077;-78
2022/12/04 00:03:52;;;;;;;34.17;19.63;;;;;;;;;;5033599;28;20067;-78
2022/12/04 00:06:18;;;;;;;31.92;19.55;;;;;;;;;;5049787;28;20045;-77
2022/12/04 00:08:45;;;;;;;34.35;18.88;;;;;;;;;;5031419;28;20044;-78
2022/12/04 00:11:12;;;;;;;30.15;18.70;;;;;;;;;;5035838;28;20078;-78
2022/12/04 00:13:38;;;;;;;32.83;18.70;;;;;;;;;;5030286;28;20118;-78
2022/12/04 00:16:06;;;;;;;30.50;18.27;;;;;;;;;;5027972;28;20029;-78
2022/12/04 00:18:32;;;;;;;32.28;19.48;;;;;;;;;;5030511;28;20677;-78
2022/12/04 00:20:58;;;;;;;32.63;17.48;;;;;;;;;;5031018;28;20044;-78
2022/12/04 00:23:24;;;;;;;33.25;19.30;;;;;;;;;;5051278;28;20056;-78
2022/12/04 00:25:52;;;;;;;35.45;18.75;;;;;;;;;;5027632;28;20041;-77
2022/12/04 00:28:18;;;;;;;31.00;18.77;;;;;;;;;;5027817;28;20052;-77
2022/12/04 00:30:45;;;;;;;32.63;19.90;;;;;;;;;;5028708;28;20045;-77
2022/12/04 00:33:11;;;;;;;30.63;17.88;;;;;;;;;;5029673;28;20098;-77
2022/12/04 00:35:37;;;;;;;35.13;19.20;;;;;;;;;;5042767;28;20558;-77
2022/12/04 00:38:03;;;;;;;32.60;18.45;;;;;;;;;;5028520;28;20473;-77
2022/12/04 00:40:30;;;;;;;32.78;18.48;;;;;;;;;;5045927;28;20474;-76
2022/12/04 00:42:56;;;;;;;34.15;18.13;;;;;;;;;;5029206;28;20059;-77
2022/12/04 00:45:22;;;;;;;31.25;18.83;;;;;;;;;;5046482;28;20551;-77
2022/12/04 00:47:51;;;;;;;30.73;18.15;;;;;;;;;;5044817;28;20147;-77
2022/12/04 00:50:17;;;;;;;30.25;17.23;;;;;;;;;;5028889;28;20045;-77
2022/12/04 00:52:43;;;;;;;30.25;18.40;;;;;;;;;;5030968;28;20048;-77
2022/12/04 00:55:09;;;;;;;28.65;17.40;;;;;;;;;;5023718;28;20060;-77
2022/12/04 00:57:35;;;;;;;29.58;16.77;;;;;;;;;;5029046;28;20040;-77
2022/12/04 01:00:01;;;;;;;28.15;16.88;;;;;;;;;;5029293;28;20060;-77
2022/12/04 01:02:29;;;;;;;30.58;16.52;;;;;;;;;;5027871;28;20056;-77
2022/12/04 01:04:55;;;;;;;28.67;15.93;;;;;;;;;;5049244;28;20045;-77
2022/12/04 01:07:21;;;;;;;27.48;16.17;;;;;;;;;;5043254;28;20040;-77
2022/12/04 01:09:47;;;;;;;27.05;16.85;;;;;;;;;;5024627;28;20055;-77
2022/12/04 01:12:13;;;;;;;26.75;15.88;;;;;;;;;;5029078;28;20481;-77
2022/12/04 01:14:42;;;;;;;28.70;16.17;;;;;;;;;;5026000;28;20041;-77
2022/12/04 01:17:08;;;;;;;27.73;16.52;;;;;;;;;;5044214;28;20052;-77
2022/12/04 01:19:34;;;;;;;26.13;14.80;;;;;;;;;;5028327;28;20045;-77
2022/12/04 01:22:00;;;;;;;30.80;16.85;;;;;;;;;;5047220;28;20041;-76
2022/12/04 01:24:26;;;;;;;28.13;15.68;;;;;;;;;;5045484;28;20049;-76
2022/12/04 01:26:52;;;;;;;30.05;17.73;;;;;;;;;;5025786;28;20049;-77
2022/12/04 01:29:18;;;;;;;27.20;15.80;;;;;;;;;;5045952;28;20041;-77
2022/12/04 01:31:44;;;;;;;24.10;15.32;;;;;;;;;;5043450;28;20041;-77
2022/12/04 01:34:10;;;;;;;26.35;16.15;;;;;;;;;;5046640;28;20041;-77
2022/12/04 01:36:42;;;;;;;30.60;16.48;;;;;;;;;;5027390;28;20052;-77
2022/12/04 01:39:08;;;;;;;28.13;16.38;;;;;;;;;;5042181;28;20048;-77
2022/12/04 01:41:35;;;;;;;27.77;15.48;;;;;;;;;;5028851;28;20049;-77
2022/12/04 01:44:07;;;;;;;26.92;16.15;;;;;;;;;;5027132;28;20515;-77
2022/12/04 01:46:33;;;;;;;25.70;15.30;;;;;;;;;;5027594;28;20048;-77
2022/12/04 01:48:59;;;;;;;29.27;16.33;;;;;;;;;;5044610;28;20050;-77
2022/12/04 01:51:33;;;;;;;29.50;16.10;;;;;;;;;;5023670;28;20041;-77
2022/12/04 01:54:01;;;;;;;29.60;16.40;;;;;;;;;;5029615;28;20060;-76
2022/12/04 01:56:32;;;;;;;30.25;16.88;;;;;;;;;;5027142;28;20048;-77
2022/12/04 01:59:00;;;;;;;28.05;16.00;;;;;;;;;;5027864;28;20084;-76
2022/12/04 02:01:27;;;;;;;29.85;16.65;;;;;;;;;;5022999;28;20049;-77
2022/12/04 02:03:53;;;;;;;28.80;16.27;;;;;;;;;;5026467;28;20049;-77
2022/12/04 02:06:19;;;;;;;31.50;17.35;;;;;;;;;;5042501;28;20055;-76
2022/12/04 02:08:45;;;;;;;26.85;16.58;;;;;;;;;;5044520;28;20463;-77
2022/12/04 02:11:38;;;;;;;27.00;15.88;;;;;;;;;;5023963;28;20576;-77
2022/12/04 02:14:12;;;;;;;29.58;17.80;;;;;;;;;;5042620;28;20049;-77
2022/12/04 02:16:54;;;;;;;30.02;17.52;;;;;;;;;;5044892;28;20049;-77
2022/12/04 02:19:39;;;;;;;30.02;16.55;;;;;;;;;;5024535;28;20037;-77
2022/12/04 02:22:09;;;;;;;28.55;16.83;;;;;;;;;;5045929;28;20048;-77
2022/12/04 02:24:54;;;;;;;28.33;15.50;;;;;;;;;;5028132;28;20041;-77
2022/12/04 02:27:20;;;;;;;28.40;15.52;;;;;;;;;;5042030;28;20044;-77
2022/12/04 02:29:55;;;;;;;29.42;15.60;;;;;;;;;;5028658;28;20053;-77
2022/12/04 02:32:24;;;;;;;27.50;17.02;;;;;;;;;;5028450;28;20052;-77
2022/12/04 02:34:58;;;;;;;30.45;16.48;;;;;;;;;;5025589;28;20564;-77
2022/12/04 02:37:35;;;;;;;31.73;17.27;;;;;;;;;;5027575;28;21623;-76
2022/12/04 02:40:04;;;;;;;31.17;16.00;;;;;;;;;;5027603;28;20404;-76
2022/12/04 02:42:39;;;;;;;30.05;15.68;;;;;;;;;;5026898;28;20133;-77
2022/12/04 02:45:08;;;;;;;27.20;15.82;;;;;;;;;;5050370;28;20098;-77
2022/12/04 02:47:35;;;;;;;29.02;16.25;;;;;;;;;;5031168;28;20489;-77
2022/12/04 02:50:05;;;;;;;28.92;16.40;;;;;;;;;;5029228;28;20528;-77
2022/12/04 02:52:34;;;;;;;32.42;16.98;;;;;;;;;;5030344;28;20057;-77
2022/12/04 02:55:07;;;;;;;28.48;16.55;;;;;;;;;;5046171;28;20382;-77
2022/12/04 02:57:35;;;;;;;33.05;18.02;;;;;;;;;;5047843;28;20497;-77
2022/12/04 03:00:04;;;;;;;28.67;16.20;;;;;;;;;;5030827;28;20469;-77
2022/12/04 03:02:37;;;;;;;28.42;16.70;;;;;;;;;;5046447;28;20045;-77
2022/12/04 03:05:06;;;;;;;31.83;17.40;;;;;;;;;;5048099;28;20123;-77
2022/12/04 03:07:34;;;;;;;30.13;16.50;;;;;;;;;;5048264;28;20049;-77
2022/12/04 03:10:04;;;;;;;28.17;16.58;;;;;;;;;;5044749;28;20045;-77
2022/12/04 03:12:38;;;;;;;33.13;17.88;;;;;;;;;;5045736;28;20037;-77
2022/12/04 03:15:09;;;;;;;31.55;17.90;;;;;;;;;;5048177;28;20064;-77
2022/12/04 03:17:45;;;;;;;32.17;18.02;;;;;;;;;;5045244;28;20041;-77
2022/12/04 03:20:13;;;;;;;32.42;17.30;;;;;;;;;;5029827;28;20037;-77
2022/12/04 03:22:41;;;;;;;33.38;18.05;;;;;;;;;;5031426;28;20102;-77
2022/12/04 03:25:07;;;;;;;29.20;16.73;;;;;;;;;;5048649;28;20048;-77
2022/12/04 03:27:39;;;;;;;31.17;18.17;;;;;;;;;;5049341;28;20124;-77
2022/12/04 03:30:13;;;;;;;31.00;17.20;;;;;;;;;;5027329;28;20093;-77
2022/12/04 03:32:44;;;;;;;31.50;18.00;;;;;;;;;;5047025;28;20048;-77
2022/12/04 03:35:15;;;;;;;28.73;16.92;;;;;;;;;;5027604;28;20068;-77
2022/12/04 03:37:48;;;;;;;30.27;17.05;;;;;;;;;;5048085;28;20041;-77
2022/12/04 03:40:16;;;;;;;29.92;17.77;;;;;;;;;;5028597;28;20443;-77
2022/12/04 03:42:49;;;;;;;35.15;19.05;;;;;;;;;;5049198;28;20053;-77
2022/12/04 03:45:28;;;;;;;35.00;19.23;;;;;;;;;;5035605;28;20060;-77
2022/12/04 03:47:58;;;;;;;31.80;18.73;;;;;;;;;;5031196;28;20052;-77
2022/12/04 03:50:44;;;;;;;33.28;18.05;;;;;;;;;;5042389;28;20492;-77
2022/12/04 03:53:20;;;;;;;31.95;18.42;;;;;;;;;;5025627;28;20045;-78
2022/12/04 03:55:50;;;;;;;31.17;18.70;;;;;;;;;;5048739;28;20048;-77
2022/12/04 03:58:19;;;;;;;31.95;17.27;;;;;;;;;;5046082;28;20080;-77
2022/12/04 04:00:47;;;;;;;34.00;18.27;;;;;;;;;;5046888;28;20396;-77
2022/12/04 04:03:15;;;;;;;35.55;19.45;;;;;;;;;;5027961;28;20044;-77
2022/12/04 04:05:43;;;;;;;29.52;17.38;;;;;;;;;;5024934;28;20045;-77
2022/12/04 04:08:26;;;;;;;33.05;17.10;;;;;;;;;;5027952;28;20388;-77
2022/12/04 04:10:58;;;;;;;36.67;19.63;;;;;;;;;;5023840;28;20397;-77
2022/12/04 04:24:43;;;;;;;31.50;18.13;;;;;;;;;;5046166;28;20124;-77
2022/12/04 04:27:09;;;;;;;35.38;18.10;;;;;;;;;;5044026;28;20603;-77
2022/12/04 04:29:36;;;;;;;36.65;19.33;;;;;;;;;;5029200;28;20051;-77
2022/12/04 04:32:05;;;;;;;36.38;18.83;;;;;;;;;;5049456;28;20409;-77
2022/12/04 04:34:34;;;;;;;33.05;18.10;;;;;;;;;;5026319;28;20045;-77
2022/12/04 04:37:12;;;;;;;35.80;19.05;;;;;;;;;;5030881;28;20136;-77
2022/12/04 04:39:38;;;;;;;33.40;18.25;;;;;;;;;;5046003;28;20132;-77
2022/12/04 04:42:09;;;;;;;34.05;18.52;;;;;;;;;;5048036;28;20127;-77
2022/12/04 04:44:44;;;;;;;33.13;18.60;;;;;;;;;;5029428;28;20484;-77
2022/12/04 04:47:13;;;;;;;32.55;18.75;;;;;;;;;;5029345;28;20045;-77
2022/12/04 04:49:39;;;;;;;33.15;19.13;;;;;;;;;;5047612;28;20136;-77
2022/12/04 04:52:06;;;;;;;35.63;19.20;;;;;;;;;;5030066;28;20045;-77
2022/12/04 04:54:33;;;;;;;34.70;19.83;;;;;;;;;;5046666;28;20059;-77
2022/12/04 04:56:59;;;;;;;33.25;18.92;;;;;;;;;;5046689;28;20381;-77
2022/12/04 04:59:25;;;;;;;34.58;18.35;;;;;;;;;;5027061;28;20111;-77
2022/12/04 05:01:51;;;;;;;34.58;19.48;;;;;;;;;;5044634;28;20048;-77
2022/12/04 05:04:17;;;;;;;34.03;18.25;;;;;;;;;;5043465;28;20037;-77
2022/12/04 05:06:43;;;;;;;35.75;19.35;;;;;;;;;;5029833;28;20051;-76
2022/12/04 05:09:09;;;;;;;35.65;21.15;;;;;;;;;;5041703;28;20084;-77
2022/12/04 05:11:35;;;;;;;36.85;20.90;;;;;;;;;;5027157;28;20072;-77
2022/12/04 05:14:01;;;;;;;35.00;19.63;;;;;;;;;;5042907;28;20048;-76
2022/12/04 05:16:27;;;;;;;35.35;19.25;;;;;;;;;;5027068;28;20394;-76
2022/12/04 05:21:40;;;;;;;35.38;18.30;;;;;;;;;;5029175;28;20504;-77
2022/12/04 05:24:09;;;;;;;38.83;21.38;;;;;;;;;;5025383;28;20417;-77
2022/12/04 05:26:35;;;;;;;37.38;20.00;;;;;;;;;;5046669;28;20037;-77
2022/12/04 05:29:01;;;;;;;35.17;19.98;;;;;;;;;;5045781;28;20520;-76
2022/12/04 05:31:27;;;;;;;40.05;22.10;;;;;;;;;;5046086;28;20057;-77
2022/12/04 05:33:53;;;;;;;38.20;20.23;;;;;;;;;;5027782;28;20048;-77
2022/12/04 05:36:22;;;;;;;34.78;20.25;;;;;;;;;;5039788;28;20041;-77
2022/12/04 05:38:48;;;;;;;39.40;21.90;;;;;;;;;;5040588;28;20481;-76
2022/12/04 05:41:14;;;;;;;39.78;21.73;;;;;;;;;;5044781;28;20068;-76
2022/12/04 05:43:40;;;;;;;36.30;20.88;;;;;;;;;;5045227;28;20144;-77
2022/12/04 05:46:07;;;;;;;38.63;22.02;;;;;;;;;;5045487;28;20056;-77
2022/12/04 05:48:34;;;;;;;39.08;22.67;;;;;;;;;;5026795;28;20465;-77
2022/12/04 05:51:00;;;;;;;36.67;21.42;;;;;;;;;;5020952;28;20092;-77
2022/12/04 05:53:26;;;;;;;37.85;20.95;;;;;;;;;;5048286;28;20122;-77
2022/12/04 05:55:56;;;;;;;40.75;22.52;;;;;;;;;;5041224;28;20045;-77
2022/12/04 05:58:22;;;;;;;42.92;23.20;;;;;;;;;;5024952;28;20048;-76
2022/12/04 06:00:48;;;;;;;41.25;22.23;;;;;;;;;;5026069;28;20049;-77
2022/12/04 06:03:14;;;;;;;39.55;21.98;;;;;;;;;;5028193;28;20060;-77
2022/12/04 06:05:40;;;;;;;42.38;22.80;;;;;;;;;;5022971;28;20056;-76
2022/12/04 06:08:06;;;;;;;40.10;21.67;;;;;;;;;;5041612;28;20539;-75
2022/12/04 06:10:32;;;;;;;40.88;21.48;;;;;;;;;;5025422;28;20087;-76
2022/12/04 06:13:01;;;;;;;45.17;24.20;;;;;;;;;;5028520;28;20049;-77
2022/12/04 06:15:27;;;;;;;40.50;24.05;;;;;;;;;;5027173;28;20049;-77
2022/12/04 06:17:53;;;;;;;44.40;25.30;;;;;;;;;;5048664;28;20091;-77
2022/12/04 06:20:19;;;;;;;41.88;22.45;;;;;;;;;;5047341;28;20401;-76
2022/12/04 06:22:45;;;;;;;43.70;23.58;;;;;;;;;;5047078;28;20072;-76
2022/12/04 06:25:10;;;;;;;45.63;23.60;;;;;;;;;;5048495;28;20120;-76
2022/12/04 06:27:37;;;;;;;43.70;24.05;;;;;;;;;;5049675;28;20465;-76
2022/12/04 06:30:03;;;;;;;40.75;23.25;;;;;;;;;;5030676;28;20090;-76
2022/12/04 06:32:29;;;;;;;43.25;23.80;;;;;;;;;;5027772;28;20557;-76
2022/12/04 06:34:55;;;;;;;44.67;22.90;;;;;;;;;;5048663;28;20048;-77
2022/12/04 06:37:21;;;;;;;41.45;24.05;;;;;;;;;;5046992;28;20044;-76
2022/12/04 06:39:48;;;;;;;42.13;23.58;;;;;;;;;;5028891;28;20053;-76
2022/12/04 06:42:14;;;;;;;41.22;23.75;;;;;;;;;;5047863;28;20053;-76
2022/12/04 06:44:40;;;;;;;45.03;23.60;;;;;;;;;;5045611;28;20508;-76
2022/12/04 06:47:06;;;;;;;42.10;24.08;;;;;;;;;;5045906;28;20462;-76
2022/12/04 06:49:32;;;;;;;44.70;25.63;;;;;;;;;;5049262;28;20128;-76
2022/12/04 06:51:58;;;;;;;41.65;24.52;;;;;;;;;;5025923;28;20037;-76
2022/12/04 06:54:24;;;;;;;43.05;25.17;;;;;;;;;;5045322;28;20059;-76
2022/12/04 06:56:50;;;;;;;43.25;24.65;;;;;;;;;;5040567;28;20036;-76
2022/12/04 06:59:17;;;;;;;41.33;23.33;;;;;;;;;;5046860;28;20045;-76
2022/12/04 07:01:42;;;;;;;42.17;23.83;;;;;;;;;;5027304;28;20134;-76
2022/12/04 07:04:08;;;;;;;40.65;23.13;;;;;;;;;;5047813;28;20143;-76
2022/12/04 07:06:36;;;;;;;41.80;21.55;;;;;;;;;;5032862;28;20048;-76
2022/12/04 07:09:06;;;;;;;43.00;24.25;;;;;;;;;;5048802;28;20045;-76
2022/12/04 07:11:33;;;;;;;41.80;24.50;;;;;;;;;;5026986;28;20076;-76
2022/12/04 07:13:59;;;;;;;36.28;22.15;;;;;;;;;;5048677;28;20048;-76
2022/12/04 07:16:26;;;;;;;41.78;24.38;;;;;;;;;;5046551;28;20162;-76
2022/12/04 07:18:52;;;;;;;40.85;24.67;;;;;;;;;;5030994;28;20076;-76
2022/12/04 07:21:19;;;;;;;44.67;24.63;;;;;;;;;;5027485;28;20055;-76
2022/12/04 07:23:48;;;;;;;38.45;22.73;;;;;;;;;;5047979;28;20048;-77
2022/12/04 07:26:15;;;;;;;43.10;24.42;;;;;;;;;;5027988;28;20048;-76
2022/12/04 07:28:41;;;;;;;42.83;23.67;;;;;;;;;;5047179;28;20045;-76
2022/12/04 07:31:08;;;;;;;44.72;25.15;;;;;;;;;;5046827;28;20045;-77
2022/12/04 07:33:34;;;;;;;44.45;25.73;;;;;;;;;;5048201;28;20037;-78
2022/12/04 07:36:01;;;;;;;42.17;24.35;;;;;;;;;;5032039;28;20477;-77
2022/12/04 07:38:28;;;;;;;41.67;23.30;;;;;;;;;;5028367;28;20120;-77
2022/12/04 07:40:58;;;;;;;39.47;23.35;;;;;;;;;;5048931;28;20116;-76
2022/12/04 07:43:24;;;;;;;38.65;22.50;;;;;;;;;;5042096;28;20046;-77
2022/12/04 07:45:51;;;;;;;41.45;22.92;;;;;;;;;;5044723;28;20037;-77
2022/12/04 07:48:17;;;;;;;36.20;23.15;;;;;;;;;;5028507;28;20128;-77
2022/12/04 07:50:43;;;;;;;38.83;23.10;;;;;;;;;;5024378;28;20056;-77
2022/12/04 07:53:09;;;;;;;39.80;24.20;;;;;;;;;;5044208;28;20053;-77
2022/12/04 07:55:35;;;;;;;41.58;24.08;;;;;;;;;;5032781;28;20053;-77
2022/12/04 07:58:01;;;;;;;40.85;22.42;;;;;;;;;;5045748;28;20106;-76
2022/12/04 08:00:27;;;;;;;39.10;22.27;;;;;;;;;;5043379;28;20045;-77
2022/12/04 08:02:53;;;;;;;35.40;21.20;;;;;;;;;;5044250;28;20049;-77
2022/12/04 08:05:20;;;;;;;40.35;22.95;;;;;;;;;;5022780;28;20128;-77
2022/12/04 08:07:45;;;;;;;41.13;21.83;;;;;;;;;;5028926;28;20052;-77
2022/12/04 08:10:11;;;;;;;39.30;22.15;;;;;;;;;;5022408;28;20783;-77
2022/12/04 08:12:38;;;;;;;36.95;22.23;;;;;;;;;;5024240;28;20080;-77
2022/12/04 08:15:05;;;;;;;38.63;23.33;;;;;;;;;;5026495;28;20041;-77
2022/12/04 08:17:34;;;;;;;42.03;23.52;;;;;;;;;;5042971;28;20068;-77
2022/12/04 08:20:00;;;;;;;39.97;22.83;;;;;;;;;;5027918;28;20506;-76
2022/12/04 08:22:26;;;;;;;43.08;23.70;;;;;;;;;;5046391;28;20126;-76
2022/12/04 08:24:52;;;;;;;38.60;22.38;;;;;;;;;;5030590;28;20114;-77
2022/12/04 08:27:18;;;;;;;40.63;22.88;;;;;;;;;;5029355;28;20053;-77
2022/12/04 08:29:44;;;;;;;37.40;21.23;;;;;;;;;;5047581;28;20400;-77
2022/12/04 08:32:10;;;;;;;39.75;21.77;;;;;;;;;;5028770;28;20350;-77
2022/12/04 08:34:36;;;;;;;38.20;21.38;;;;;;;;;;5048765;28;20051;-77
2022/12/04 08:37:02;;;;;;;39.08;21.13;;;;;;;;;;5049126;28;20045;-77
2022/12/04 08:39:28;;;;;;;38.83;22.45;;;;;;;;;;5027423;28;20225;-78
2022/12/04 08:41:57;;;;;;;39.40;21.92;;;;;;;;;;5026459;28;20045;-77
2022/12/04 08:44:23;;;;;;;37.88;21.95;;;;;;;;;;5028229;28;20051;-77
2022/12/04 08:46:49;;;;;;;39.42;21.13;;;;;;;;;;5047401;28;20477;-77
2022/12/04 08:49:14;;;;;;;37.13;21.00;;;;;;;;;;5045777;28;20033;-77
2022/12/04 08:51:41;;;;;;;37.20;21.95;;;;;;;;;;5028919;28;20052;-77
2022/12/04 08:54:07;;;;;;;42.97;22.45;;;;;;;;;;5042466;28;20044;-78
2022/12/04 08:56:34;;;;;;;43.53;23.55;;;;;;;;;;5040309;28;20392;-78
2022/12/04 08:59:00;;;;;;;40.60;22.63;;;;;;;;;;5041664;28;20152;-80
2022/12/04 09:01:27;;;;;;;37.22;22.15;;;;;;;;;;5044680;28;20037;-80
2022/12/04 09:03:53;;;;;;;38.95;22.17;;;;;;;;;;5027595;28;20053;-84
2022/12/04 09:06:20;;;;;;;37.88;21.42;;;;;;;;;;5052963;28;20045;-82
2022/12/04 09:08:46;;;;;;;39.75;23.75;;;;;;;;;;5048668;28;20772;-78
2022/12/04 09:11:13;;;;;;;39.20;21.90;;;;;;;;;;5042954;28;20045;-81
2022/12/04 09:13:40;;;;;;;40.05;23.75;;;;;;;;;;5030224;28;20057;-79
2022/12/04 09:16:08;;;;;;;39.38;22.90;;;;;;;;;;5048328;28;20033;-78
2022/12/04 09:18:34;;;;;;;39.50;23.08;;;;;;;;;;5029773;28;20045;-79
2022/12/04 09:21:01;;;;;;;43.33;23.70;;;;;;;;;;5033162;28;20045;-80
2022/12/04 09:23:27;;;;;;;41.50;22.60;;;;;;;;;;5028607;28;20049;-82
2022/12/04 09:25:53;;;;;;;39.90;23.65;;;;;;;;;;5050510;28;20065;-80
2022/12/04 09:28:19;;;;;;;41.10;25.23;;;;;;;;;;5050644;28;20456;-81
2022/12/04 09:30:54;;;;;;;39.42;23.42;;;;;;;;;;5045668;28;20119;-81
2022/12/04 09:33:20;;;;;;;43.35;24.42;;;;;;;;;;5030970;28;20049;-81
2022/12/04 09:35:46;;;;;;;40.60;22.38;;;;;;;;;;5044647;28;20047;-78
2022/12/04 09:38:12;;;;;;;42.97;23.00;;;;;;;;;;5028660;28;20141;-78
2022/12/04 09:41:10;;;;;;;38.40;23.38;;;;;;;;;;5027225;28;20081;-79
2022/12/04 09:43:56;;;;;;;37.10;21.83;;;;;;;;;;4989234;28;20144;-81
2022/12/04 09:46:29;;;;;;;41.10;22.77;;;;;;;;;;5024362;28;20060;-80
2022/12/04 09:48:56;;;;;;;40.88;23.52;;;;;;;;;;5049383;28;20044;-80
2022/12/04 09:51:23;;;;;;;36.83;22.05;;;;;;;;;;5034262;28;20049;-80
2022/12/04 09:54:00;;;;;;;36.78;22.67;;;;;;;;;;5029508;28;20055;-80
2022/12/04 09:56:28;;;;;;;37.40;21.77;;;;;;;;;;5033484;28;20048;-79
2022/12/04 09:59:13;;;;;;;39.70;22.27;;;;;;;;;;5035814;28;20393;-79
2022/12/04 10:01:47;;;;;;;38.95;23.05;;;;;;;;;;5030400;28;20052;-78
2022/12/04 10:04:14;;;;;;;43.45;23.65;;;;;;;;;;5028208;28;20051;-79
2022/12/04 10:06:43;;;;;;;37.03;22.67;;;;;;;;;;5030840;28;20527;-78
2022/12/04 10:09:15;;;;;;;41.45;23.10;;;;;;;;;;5028346;28;20115;-80
2022/12/04 10:11:59;;;;;;;39.40;23.00;;;;;;;;;;5031404;28;20562;-80
2022/12/04 10:14:44;;;;;;;44.42;24.90;;;;;;;;;;5027669;28;21119;-80
2022/12/04 10:17:26;;;;;;;42.10;23.73;;;;;;;;;;5026783;28;20099;-79
2022/12/04 10:20:02;;;;;;;38.60;23.45;;;;;;;;;;5045520;28;20076;-77
2022/12/04 10:22:34;;;;;;;38.28;22.85;;;;;;;;;;5027883;28;20083;-76
2022/12/04 10:25:05;;;;;;;41.88;23.73;;;;;;;;;;5029046;28;20404;-77
2022/12/04 10:27:35;;;;;;;39.72;23.02;;;;;;;;;;5030827;28;20132;-77
2022/12/04 10:30:03;;;;;;;38.72;22.50;;;;;;;;;;5030768;28;20038;-76
2022/12/04 10:32:31;;;;;;;38.53;22.33;;;;;;;;;;5046183;28;20041;-77
2022/12/04 10:34:59;;;;;;;42.50;23.00;;;;;;;;;;5047944;28;20135;-76
2022/12/04 10:37:27;;;;;;;39.05;23.38;;;;;;;;;;5046831;28;20520;-76
2022/12/04 10:40:02;;;;;;;39.95;23.08;;;;;;;;;;5046620;28;20520;-76
2022/12/04 10:42:28;;;;;;;41.00;24.30;;;;;;;;;;5048955;28;20567;-77
2022/12/04 10:44:54;;;;;;;38.53;23.60;;;;;;;;;;5030217;28;20636;-76
2022/12/04 10:47:22;;;;;;;40.17;23.60;;;;;;;;;;5029716;28;20496;-77
2022/12/04 10:49:49;;;;;;;37.72;21.67;;;;;;;;;;5047022;28;20051;-76
2022/12/04 10:52:15;;;;;;;36.20;22.13;;;;;;;;;;5046957;28;20087;-77
2022/12/04 10:54:56;;;;;;;38.90;22.23;;;;;;;;;;5028640;28;20048;-77
2022/12/04 10:57:21;;;;;;;40.00;22.40;;;;;;;;;;5048008;28;20137;-76
2022/12/04 10:59:51;;;;;;;38.30;22.40;;;;;;;;;;5027233;28;20091;-76
2022/12/04 11:02:22;;;;;;;37.35;22.52;;;;;;;;;;5026119;28;20049;-76
2022/12/04 11:05:07;;;;;;;34.80;21.85;;;;;;;;;;5043110;28;20149;-76
2022/12/04 11:07:35;;;;;;;34.00;21.77;;;;;;;;;;5029366;28;20067;-76
2022/12/04 11:10:06;;;;;;;36.08;21.80;;;;;;;;;;5029174;28;20049;-77
2022/12/04 11:12:32;;;;;;;34.53;21.33;;;;;;;;;;5030879;28;20049;-77
2022/12/04 11:14:59;;;;;;;33.42;21.55;;;;;;;;;;5028641;28;20044;-76
2022/12/04 11:17:25;;;;;;;37.47;22.50;;;;;;;;;;5027904;28;20061;-76
2022/12/04 11:20:05;;;;;;;36.63;21.17;;;;;;;;;;5047304;28;20048;-76
2022/12/04 11:22:32;;;;;;;34.17;20.42;;;;;;;;;;5045468;28;20511;-76
2022/12/04 11:24:59;;;;;;;31.55;21.00;;;;;;;;;;5027472;28;20045;-76
2022/12/04 11:27:33;;;;;;;33.65;21.13;;;;;;;;;;5032133;28;20048;-76
2022/12/04 11:30:07;;;;;;;33.28;19.88;;;;;;;;;;5042401;28;20076;-77
2022/12/04 11:32:33;;;;;;;33.22;20.33;;;;;;;;;;5024245;28;20041;-77
2022/12/04 11:35:11;;;;;;;32.72;19.83;;;;;;;;;;5034314;28;20053;-78
2022/12/04 11:37:38;;;;;;;29.08;19.15;;;;;;;;;;5034353;28;20044;-77
2022/12/04 11:40:06;;;;;;;29.38;18.55;;;;;;;;;;5031087;28;20048;-77
2022/12/04 11:42:32;;;;;;;31.00;19.17;;;;;;;;;;5028600;28;20049;-76
2022/12/04 11:45:00;;;;;;;33.13;19.27;;;;;;;;;;5041082;28;20478;-77
2022/12/04 11:47:28;;;;;;;26.80;17.58;;;;;;;;;;5044148;28;20048;-77
2022/12/04 11:50:03;;;;;;;29.17;17.25;;;;;;;;;;5022363;28;20045;-77
2022/12/04 11:52:41;;;;;;;28.13;17.52;;;;;;;;;;5046866;28;20064;-77
2022/12/04 11:55:13;;;;;;;26.33;16.85;;;;;;;;;;5025408;28;20064;-76
2022/12/04 11:57:47;;;;;;;27.83;15.63;;;;;;;;;;5026000;28;20396;-77
2022/12/04 12:00:15;;;;;;;29.15;16.25;;;;;;;;;;5022265;28;20044;-76
2022/12/04 12:02:59;;;;;;;25.23;16.45;;;;;;;;;;5028114;28;20041;-77
2022/12/04 12:05:44;;;;;;;23.92;15.55;;;;;;;;;;5025971;28;20064;-76
2022/12/04 12:08:10;;;;;;;22.92;15.05;;;;;;;;;;5026581;28;20132;-77
2022/12/04 12:10:49;;;;;;;24.15;15.13;;;;;;;;;;5024030;28;22857;-79
2022/12/04 12:13:21;;;;;;;26.75;16.33;;;;;;;;;;5047023;28;20072;-83
2022/12/04 12:15:47;;;;;;;22.33;14.30;;;;;;;;;;5031652;28;20369;-86
2022/12/04 12:18:19;;;;;;;25.90;16.70;;;;;;;;;;5049474;28;20051;-77
2022/12/04 12:21:04;;;;;;;24.23;14.38;;;;;;;;;;5048017;28;20041;-77
2022/12/04 12:23:40;;;;;;;22.98;14.52;;;;;;;;;;5027847;28;20069;-77
2022/12/04 12:26:10;;;;;;;20.92;12.63;;;;;;;;;;5027838;28;20489;-77
2022/12/04 12:28:55;;;;;;;19.05;12.73;;;;;;;;;;5027410;28;20400;-77
2022/12/04 12:31:39;;;;;;;20.90;13.93;;;;;;;;;;5046487;28;20045;-77
2022/12/04 12:34:17;;;;;;;18.85;11.80;;;;;;;;;;5093096;27;1312507;-75
2022/12/04 12:36:46;;;;;;;19.00;12.63;;;;;;;;;;5122360;28;20425;-75
2022/12/04 12:39:18;;;;;;;21.73;13.00;;;;;;;;;;5116361;27;20039;-76
2022/12/04 12:41:52;;;;;;;18.50;11.02;;;;;;;;;;5098031;28;20051;-76
2022/12/04 12:44:26;;;;;;;18.55;13.63;;;;;;;;;;5091328;28;20048;-76
2022/12/04 12:47:07;;;;;;;16.92;11.48;;;;;;;;;;5101184;28;20078;-75
2022/12/04 12:49:46;;;;;;;17.70;11.77;;;;;;;;;;5122230;28;20036;-77
2022/12/04 12:52:24;;;;;;;17.20;10.82;;;;;;;;;;5116089;28;20047;-80
2022/12/04 12:55:09;;;;;;;14.68;10.55;;;;;;;;;;5108552;28;20139;-77
2022/12/04 12:57:36;;;;;;;17.40;11.05;;;;;;;;;;5102527;28;20071;-76
2022/12/04 13:00:07;;;;;;;17.10;10.75;;;;;;;;;;5098222;28;20055;-75
2022/12/04 13:02:35;;;;;;;16.63;10.55;;;;;;;;;;5107126;28;20066;-77
2022/12/04 13:05:07;;;;;;;16.98;10.05;;;;;;;;;;5100717;28;20044;-82
2022/12/04 13:07:42;;;;;;;18.15;11.90;;;;;;;;;;5092295;27;20471;-82
2022/12/04 13:10:26;;;;;;;18.02;11.98;;;;;;;;;;5095509;28;20166;-80
2022/12/04 13:12:56;;;;;;;20.35;13.23;;;;;;;;;;5098375;27;20039;-84
2022/12/04 13:15:23;;;;;;;16.83;11.85;;;;;;;;;;5099928;28;20164;-83
2022/12/04 13:17:51;;;;;;;19.45;12.82;;;;;;;;;;5112326;28;20042;-80
2022/12/04 13:20:22;;;;;;;18.35;11.55;;;;;;;;;;5099702;28;20047;-79
2022/12/04 13:22:58;;;;;;;20.05;13.07;;;;;;;;;;5119431;28;20499;-83
2022/12/04 13:25:42;;;;;;;17.33;12.65;;;;;;;;;;5117086;27;20118;-79
2022/12/04 13:28:11;;;;;;;17.48;12.18;;;;;;;;;;5100918;27;20039;-78
2022/12/04 13:30:48;;;;;;;17.95;12.25;;;;;;;;;;5102150;28;20056;-76
2022/12/04 13:33:28;;;;;;;19.65;12.60;;;;;;;;;;5115537;28;20062;-76
2022/12/04 13:35:54;;;;;;;18.63;12.27;;;;;;;;;;5099468;28;20063;-76
2022/12/04 13:38:20;;;;;;;18.55;11.88;;;;;;;;;;5103749;28;20534;-76
2022/12/04 13:40:53;;;;;;;16.42;11.27;;;;;;;;;;5099733;28;20086;-76
2022/12/04 13:43:24;;;;;;;17.67;12.05;;;;;;;;;;5096710;27;20043;-75
2022/12/04 13:45:52;;;;;;;18.30;12.40;;;;;;;;;;5102395;28;20118;-76
2022/12/04 13:48:28;;;;;;;19.75;12.75;;;;;;;;;;5102850;28;20079;-75
2022/12/04 13:51:04;;;;;;;19.52;12.73;;;;;;;;;;5097654;28;20391;-75
2022/12/04 13:53:31;;;;;;;19.00;12.50;;;;;;;;;;5087670;28;20043;-76
2022/12/04 13:55:58;;;;;;;20.40;13.43;;;;;;;;;;5081050;28;20562;-76
2022/12/04 13:58:29;;;;;;;21.33;14.23;;;;;;;;;;5081903;28;20048;-76
2022/12/04 14:01:23;;;;;;;19.35;13.18;;;;;;;;;;5084463;28;20471;-75
2022/12/04 14:03:54;;;;;;;21.83;13.95;;;;;;;;;;5080044;28;20051;-75
2022/12/04 14:06:24;;;;;;;22.23;14.45;;;;;;;;;;5103827;28;20062;-75
2022/12/04 14:08:59;;;;;;;21.83;14.00;;;;;;;;;;5079745;28;20163;-75
2022/12/04 14:11:25;;;;;;;20.33;13.57;;;;;;;;;;5087799;28;20044;-75
2022/12/04 14:13:53;;;;;;;21.70;13.80;;;;;;;;;;5083639;28;20521;-75
2022/12/04 14:16:25;;;;;;;22.13;14.38;;;;;;;;;;5103156;28;20100;-75
2022/12/04 14:18:58;;;;;;;21.10;13.65;;;;;;;;;;5102122;28;20039;-75
2022/12/04 14:21:25;;;;;;;21.40;13.80;;;;;;;;;;5081985;28;20067;-76
2022/12/04 14:23:57;;;;;;;22.55;14.57;;;;;;;;;;5105510;28;20479;-76
2022/12/04 14:26:27;;;;;;;22.58;13.95;;;;;;;;;;5084143;28;20067;-76
2022/12/04 14:29:05;;;;;;;19.83;13.18;;;;;;;;;;5086999;28;20155;-75
2022/12/04 14:31:37;;;;;;;23.98;14.23;;;;;;;;;;5096891;28;20069;-74
2022/12/04 14:34:06;;;;;;;20.33;13.02;;;;;;;;;;5076618;28;20054;-76
2022/12/04 14:36:40;;;;;;;20.77;13.57;;;;;;;;;;5097857;28;20475;-76
2022/12/04 14:39:12;;;;;;;19.52;12.75;;;;;;;;;;5097762;28;20056;-77
2022/12/04 14:41:38;;;;;;;20.02;13.55;;;;;;;;;;5083884;28;20048;-75
2022/12/04 14:44:05;;;;;;;19.05;12.30;;;;;;;;;;5096369;28;20432;-78